sensor_id;sensor_type;location;lat;lon;timestamp;pressure;altitude;pressure_sealevel;temperature;humidity
31775;BME280;66189;49.000;11.640;2023-04-06T00:00:11;96194.88;;;-0.66;60.31
31775;BME280;66189;49.000;11.640;2023-04-06T00:02:12;96198.53;;;-0.62;59.87
31775;BME280;66189;49.000;11.640;2023-04-06T00:04:12;96188.34;;;-0.74;59.96
31775;BME280;66189;49.000;11.640;2023-04-06T00:06:13;96195.41;;;-0.69;59.63
31775;BME280;66189;49.000;11.640;2023-04-06T00:08:13;96198.13;;;-0.74;59.59
31775;BME280;66189;49.000;11.640;2023-04-06T00:10:13;96186.75;;;-0.75;59.41
31775;BME280;66189;49.000;11.640;2023-04-06T00:12:14;96188.41;;;-0.84;60.53
31775;BME280;66189;49.000;11.640;2023-04-06T00:14:15;96191.59;;;-0.82;61.19
31775;BME280;66189;49.000;11.640;2023-04-06T00:16:17;96183.75;;;-0.92;61.53
31775;BME280;66189;49.000;11.640;2023-04-06T00:18:17;96190.91;;;-0.98;61.59
31775;BME280;66189;49.000;11.640;2023-04-06T00:20:18;96183.78;;;-0.97;61.93
31775;BME280;66189;49.000;11.640;2023-04-06T00:22:19;96185.91;;;-0.99;62.16
31775;BME280;66189;49.000;11.640;2023-04-06T00:24:19;96186.13;;;-0.96;62.04
31775;BME280;66189;49.000;11.640;2023-04-06T00:26:20;96184.09;;;-1.04;61.69
31775;BME280;66189;49.000;11.640;2023-04-06T00:28:22;96185.44;;;-1.07;61.59
31775;BME280;66189;49.000;11.640;2023-04-06T00:30:25;96186.78;;;-1.09;62.38
31775;BME280;66189;49.000;11.640;2023-04-06T00:32:26;96186.78;;;-1.09;62.89
31775;BME280;66189;49.000;11.640;2023-04-06T00:34:26;96185.22;;;-1.10;63.38
31775;BME280;66189;49.000;11.640;2023-04-06T00:36:26;96184.72;;;-1.12;63.75
31775;BME280;66189;49.000;11.640;2023-04-06T00:38:27;96181.25;;;-1.13;64.30
31775;BME280;66189;49.000;11.640;2023-04-06T00:40:27;96183.63;;;-1.11;64.22
31775;BME280;66189;49.000;11.640;2023-04-06T00:42:28;96176.31;;;-1.19;63.99
31775;BME280;66189;49.000;11.640;2023-04-06T00:44:29;96181.59;;;-1.19;63.49
31775;BME280;66189;49.000;11.640;2023-04-06T00:46:29;96173.16;;;-1.21;63.08
31775;BME280;66189;49.000;11.640;2023-04-06T00:48:31;96172.88;;;-1.20;62.92
31775;BME280;66189;49.000;11.640;2023-04-06T00:50:31;96169.22;;;-1.24;63.38
31775;BME280;66189;49.000;11.640;2023-04-06T00:52:33;96176.88;;;-1.28;63.50
31775;BME280;66189;49.000;11.640;2023-04-06T00:54:34;96170.31;;;-1.30;63.24
31775;BME280;66189;49.000;11.640;2023-04-06T00:56:35;96169.06;;;-1.38;62.93
31775;BME280;66189;49.000;11.640;2023-04-06T00:58:35;96170.06;;;-1.34;63.34
31775;BME280;66189;49.000;11.640;2023-04-06T01:00:40;96168.03;;;-1.42;64.26
31775;BME280;66189;49.000;11.640;2023-04-06T01:02:42;96164.06;;;-1.45;64.19
31775;BME280;66189;49.000;11.640;2023-04-06T01:04:45;96170.38;;;-1.40;63.73
31775;BME280;66189;49.000;11.640;2023-04-06T01:06:54;96168.25;;;-1.38;63.12
31775;BME280;66189;49.000;11.640;2023-04-06T01:09:03;96164.56;;;-1.37;62.61
31775;BME280;66189;49.000;11.640;2023-04-06T01:11:03;96170.06;;;-1.34;62.69
31775;BME280;66189;49.000;11.640;2023-04-06T01:13:04;96162.19;;;-1.39;63.06
31775;BME280;66189;49.000;11.640;2023-04-06T01:15:20;96171.69;;;-1.38;63.45
31775;BME280;66189;49.000;11.640;2023-04-06T01:17:24;96167.53;;;-1.44;64.04
31775;BME280;66189;49.000;11.640;2023-04-06T01:19:25;96170.38;;;-1.40;63.77
31775;BME280;66189;49.000;11.640;2023-04-06T01:21:27;96168.81;;;-1.41;62.83
31775;BME280;66189;49.000;11.640;2023-04-06T01:23:48;96168.53;;;-1.40;62.19
31775;BME280;66189;49.000;11.640;2023-04-06T01:25:54;96170.66;;;-1.42;62.57
31775;BME280;66189;49.000;11.640;2023-04-06T01:27:55;96172.75;;;-1.39;62.90
31775;BME280;66189;49.000;11.640;2023-04-06T01:29:58;96161.41;;;-1.39;62.99
31775;BME280;66189;49.000;11.640;2023-04-06T01:32:25;96174.84;;;-1.36;63.22
31775;BME280;66189;49.000;11.640;2023-04-06T01:34:26;96166.91;;;-1.36;64.21
31775;BME280;66189;49.000;11.640;2023-04-06T01:36:28;96171.69;;;-1.38;64.67
31775;BME280;66189;49.000;11.640;2023-04-06T01:38:38;96166.91;;;-1.36;64.71
31775;BME280;66189;49.000;11.640;2023-04-06T01:40:38;96166.41;;;-1.38;65.57
31775;BME280;66189;49.000;11.640;2023-04-06T01:42:40;96156.13;;;-1.39;65.35
31775;BME280;66189;49.000;11.640;2023-04-06T01:44:42;96159.06;;;-1.41;65.31
31775;BME280;66189;49.000;11.640;2023-04-06T01:46:47;96157.47;;;-1.42;65.66
31775;BME280;66189;49.000;11.640;2023-04-06T01:48:52;96151.69;;;-1.49;65.56
31775;BME280;66189;49.000;11.640;2023-04-06T01:51:13;96153.84;;;-1.51;65.86
31775;BME280;66189;49.000;11.640;2023-04-06T01:53:21;96150.16;;;-1.50;65.13
31775;BME280;66189;49.000;11.640;2023-04-06T01:55:21;96146.97;;;-1.47;64.83
31775;BME280;66189;49.000;11.640;2023-04-06T01:57:45;96148.28;;;-1.50;65.03
31775;BME280;66189;49.000;11.640;2023-04-06T01:59:52;96147.47;;;-1.45;64.94
31775;BME280;66189;49.000;11.640;2023-04-06T02:01:58;96146.97;;;-1.47;64.91
31775;BME280;66189;49.000;11.640;2023-04-06T02:04:01;96145.41;;;-1.53;65.47
31775;BME280;66189;49.000;11.640;2023-04-06T02:06:01;96149.09;;;-1.54;65.35
31775;BME280;66189;49.000;11.640;2023-04-06T02:08:07;96168.13;;;-1.57;65.38
31775;BME280;66189;49.000;11.640;2023-04-06T02:10:12;96162.31;;;-1.59;65.72
31775;BME280;66189;49.000;11.640;2023-04-06T02:12:13;96161.31;;;-1.64;66.29
31775;BME280;66189;49.000;11.640;2023-04-06T02:14:13;96152.84;;;-1.66;65.99
31775;BME280;66189;49.000;11.640;2023-04-06T02:16:20;96147.66;;;-1.76;66.61
31775;BME280;66189;49.000;11.640;2023-04-06T02:18:20;96155.59;;;-1.76;66.33
31775;BME280;66189;49.000;11.640;2023-04-06T02:20:21;96150.59;;;-1.83;66.89
31775;BME280;66189;49.000;11.640;2023-04-06T02:22:21;96154.28;;;-1.79;66.94
31775;BME280;66189;49.000;11.640;2023-04-06T02:24:22;96150.88;;;-1.84;67.05
31775;BME280;66189;49.000;11.640;2023-04-06T02:26:22;96153.56;;;-1.94;67.96
31775;BME280;66189;49.000;11.640;2023-04-06T02:28:22;96151.47;;;-1.98;68.35
31775;BME280;66189;49.000;11.640;2023-04-06T02:30:23;96142.00;;;-2.04;67.70
31775;BME280;66189;49.000;11.640;2023-04-06T02:32:24;96142.25;;;-2.00;67.04
31775;BME280;66189;49.000;11.640;2023-04-06T02:34:25;96148.84;;;-2.03;66.89
31775;BME280;66189;49.000;11.640;2023-04-06T02:36:26;96145.91;;;-1.96;66.39
31775;BME280;66189;49.000;11.640;2023-04-06T02:38:26;96146.19;;;-1.92;65.88
31775;BME280;66189;49.000;11.640;2023-04-06T02:40:26;96146.91;;;-1.87;65.84
31775;BME280;66189;49.000;11.640;2023-04-06T02:42:27;96145.63;;;-1.89;65.75
31775;BME280;66189;49.000;11.640;2023-04-06T02:44:27;96143.50;;;-1.87;66.06
31775;BME280;66189;49.000;11.640;2023-04-06T02:46:28;96141.63;;;-1.87;66.27
31775;BME280;66189;49.000;11.640;2023-04-06T02:48:28;96145.88;;;-1.86;66.04
31775;BME280;66189;49.000;11.640;2023-04-06T02:50:28;96145.13;;;-1.97;65.67
31775;BME280;66189;49.000;11.640;2023-04-06T02:52:34;96144.31;;;-1.92;65.75
31775;BME280;66189;49.000;11.640;2023-04-06T02:54:34;96133.81;;;-2.02;65.86
31775;BME280;66189;49.000;11.640;2023-04-06T02:56:36;96138.06;;;-2.06;66.28
31775;BME280;66189;49.000;11.640;2023-04-06T02:58:37;96141.00;;;-2.08;66.30
31775;BME280;66189;49.000;11.640;2023-04-06T03:00:37;96132.81;;;-2.06;66.46
31775;BME280;66189;49.000;11.640;2023-04-06T03:02:38;96138.06;;;-2.06;66.63
31775;BME280;66189;49.000;11.640;2023-04-06T03:04:44;96139.41;;;-2.09;66.60
31775;BME280;66189;49.000;11.640;2023-04-06T03:06:54;96135.72;;;-2.08;66.41
31775;BME280;66189;49.000;11.640;2023-04-06T03:09:06;96141.53;;;-2.11;66.97
31775;BME280;66189;49.000;11.640;2023-04-06T03:11:08;96129.91;;;-2.10;66.91
31775;BME280;66189;49.000;11.640;2023-04-06T03:13:12;96144.16;;;-2.11;66.88
31775;BME280;66189;49.000;11.640;2023-04-06T03:15:22;96140.47;;;-2.15;66.83
31775;BME280;66189;49.000;11.640;2023-04-06T03:17:28;96146.03;;;-2.17;67.16
31775;BME280;66189;49.000;11.640;2023-04-06T03:19:32;96143.94;;;-2.20;67.33
31775;BME280;66189;49.000;11.640;2023-04-06T03:21:36;96142.09;;;-2.24;67.29
31775;BME280;66189;49.000;11.640;2023-04-06T03:23:36;96142.59;;;-2.17;67.40
31775;BME280;66189;49.000;11.640;2023-04-06T03:25:37;96140.75;;;-2.22;67.43
31775;BME280;66189;49.000;11.640;2023-04-06T03:27:40;96148.41;;;-2.20;67.46
31775;BME280;66189;49.000;11.640;2023-04-06T03:29:44;96133.94;;;-2.28;67.66
31775;BME280;66189;49.000;11.640;2023-04-06T03:31:48;96147.91;;;-2.27;66.83
31775;BME280;66189;49.000;11.640;2023-04-06T03:34:01;96147.91;;;-2.33;67.44
31775;BME280;66189;49.000;11.640;2023-04-06T03:36:05;96158.19;;;-2.31;67.27
31775;BME280;66189;49.000;11.640;2023-04-06T03:38:10;96151.91;;;-2.35;67.81
31775;BME280;66189;49.000;11.640;2023-04-06T03:40:10;96153.72;;;-2.36;67.14
31775;BME280;66189;49.000;11.640;2023-04-06T03:42:11;96154.53;;;-2.40;67.53
31775;BME280;66189;49.000;11.640;2023-04-06T03:44:18;96160.31;;;-2.33;67.35
31775;BME280;66189;49.000;11.640;2023-04-06T03:46:18;96158.78;;;-2.44;67.91
31775;BME280;66189;49.000;11.640;2023-04-06T03:48:19;96159.28;;;-2.42;68.33
31775;BME280;66189;49.000;11.640;2023-04-06T03:50:19;96161.69;;;-2.46;68.59
31775;BME280;66189;49.000;11.640;2023-04-06T03:52:19;96160.34;;;-2.43;68.52
31775;BME280;66189;49.000;11.640;2023-04-06T03:54:20;96160.88;;;-2.46;68.46
31775;BME280;66189;49.000;11.640;2023-04-06T03:56:21;96160.09;;;-2.47;68.31
31775;BME280;66189;49.000;11.640;2023-04-06T03:58:21;96166.69;;;-2.50;68.82
31775;BME280;66189;49.000;11.640;2023-04-06T04:00:22;96169.63;;;-2.56;68.71
31775;BME280;66189;49.000;11.640;2023-04-06T04:02:22;96163.00;;;-2.54;68.51
31775;BME280;66189;49.000;11.640;2023-04-06T04:04:24;96165.94;;;-2.60;68.30
31775;BME280;66189;49.000;11.640;2023-04-06T04:06:25;96168.03;;;-2.57;68.30
31775;BME280;66189;49.000;11.640;2023-04-06T04:08:25;96167.25;;;-2.63;68.68
31775;BME280;66189;49.000;11.640;2023-04-06T04:10:26;96163.00;;;-2.54;67.92
31775;BME280;66189;49.000;11.640;2023-04-06T04:12:26;96161.69;;;-2.51;67.61
31775;BME280;66189;49.000;11.640;2023-04-06T04:14:26;96156.69;;;-2.53;67.59
31775;BME280;66189;49.000;11.640;2023-04-06T04:16:27;96166.69;;;-2.50;67.60
31775;BME280;66189;49.000;11.640;2023-04-06T04:18:27;96171.44;;;-2.57;67.67
31775;BME280;66189;49.000;11.640;2023-04-06T04:20:27;96162.22;;;-2.54;67.97
31775;BME280;66189;49.000;11.640;2023-04-06T04:22:29;96169.34;;;-2.55;68.10
31775;BME280;66189;49.000;11.640;2023-04-06T04:24:30;96171.97;;;-2.60;67.90
31775;BME280;66189;49.000;11.640;2023-04-06T04:26:30;96174.34;;;-2.58;68.36
31775;BME280;66189;49.000;11.640;2023-04-06T04:28:31;96179.63;;;-2.63;69.06
31775;BME280;66189;49.000;11.640;2023-04-06T04:30:32;96176.19;;;-2.59;69.10
31775;BME280;66189;49.000;11.640;2023-04-06T04:32:32;96173.56;;;-2.69;68.61
31775;BME280;66189;49.000;11.640;2023-04-06T04:34:37;96175.41;;;-2.64;68.57
31775;BME280;66189;49.000;11.640;2023-04-06T04:36:42;96178.03;;;-2.64;68.64
31775;BME280;66189;49.000;11.640;2023-04-06T04:38:45;96178.56;;;-2.68;68.97
31775;BME280;66189;49.000;11.640;2023-04-06T04:40:47;96180.69;;;-2.64;68.78
31775;BME280;66189;49.000;11.640;2023-04-06T04:42:49;96177.28;;;-2.70;68.98
31775;BME280;66189;49.000;11.640;2023-04-06T04:44:57;96172.81;;;-2.85;69.66
31775;BME280;66189;49.000;11.640;2023-04-06T04:47:08;96172.81;;;-2.90;69.36
31775;BME280;66189;49.000;11.640;2023-04-06T04:49:16;96170.19;;;-2.95;69.99
31775;BME280;66189;49.000;11.640;2023-04-06T04:51:17;96174.41;;;-2.94;69.57
31775;BME280;66189;49.000;11.640;2023-04-06T04:53:29;96172.31;;;-2.97;70.12
31775;BME280;66189;49.000;11.640;2023-04-06T04:55:36;96174.69;;;-2.96;70.08
31775;BME280;66189;49.000;11.640;2023-04-06T04:57:38;96175.47;;;-3.00;69.91
31775;BME280;66189;49.000;11.640;2023-04-06T04:59:39;96175.19;;;-3.14;71.10
31775;BME280;66189;49.000;11.640;2023-04-06T05:01:52;96181.00;;;-3.02;69.71
31775;BME280;66189;49.000;11.640;2023-04-06T05:03:54;96177.06;;;-3.10;70.18
31775;BME280;66189;49.000;11.640;2023-04-06T05:05:54;96177.06;;;-3.10;70.31
31775;BME280;66189;49.000;11.640;2023-04-06T05:07:57;96177.56;;;-3.03;70.41
31775;BME280;66189;49.000;11.640;2023-04-06T05:10:10;96180.75;;;-3.00;69.65
31775;BME280;66189;49.000;11.640;2023-04-06T05:12:19;96181.50;;;-2.95;69.96
31775;BME280;66189;49.000;11.640;2023-04-06T05:14:28;96175.19;;;-2.89;69.50
31775;BME280;66189;49.000;11.640;2023-04-06T05:16:30;96175.72;;;-2.76;69.64
31775;BME280;66189;49.000;11.640;2023-04-06T05:18:31;96179.13;;;-2.76;70.11
31775;BME280;66189;49.000;11.640;2023-04-06T05:20:33;96179.38;;;-2.67;69.43
31775;BME280;66189;49.000;11.640;2023-04-06T05:22:33;96178.31;;;-2.66;69.80
31775;BME280;66189;49.000;11.640;2023-04-06T05:24:39;96176.47;;;-2.60;70.18
31775;BME280;66189;49.000;11.640;2023-04-06T05:26:41;96177.50;;;-2.51;70.04
31775;BME280;66189;49.000;11.640;2023-04-06T05:28:50;96183.03;;;-2.47;69.97
31775;BME280;66189;49.000;11.640;2023-04-06T05:30:52;96182.50;;;-2.44;69.86
31775;BME280;66189;49.000;11.640;2023-04-06T05:32:53;96184.84;;;-2.48;69.57
31775;BME280;66189;49.000;11.640;2023-04-06T05:34:55;96181.16;;;-2.42;69.33
31775;BME280;66189;49.000;11.640;2023-04-06T05:36:56;96181.41;;;-2.43;69.58
31775;BME280;66189;49.000;11.640;2023-04-06T05:38:59;96181.66;;;-2.35;69.97
31775;BME280;66189;49.000;11.640;2023-04-06T05:41:22;96183.22;;;-2.28;69.90
31775;BME280;66189;49.000;11.640;2023-04-06T05:43:24;96177.72;;;-2.32;69.91
31775;BME280;66189;49.000;11.640;2023-04-06T05:45:28;96189.53;;;-2.24;70.24
31775;BME280;66189;49.000;11.640;2023-04-06T05:47:30;96189.25;;;-2.18;70.88
31775;BME280;66189;49.000;11.640;2023-04-06T05:49:38;96187.66;;;-2.13;71.40
31775;BME280;66189;49.000;11.640;2023-04-06T05:51:44;96187.09;;;-2.05;71.13
31775;BME280;66189;49.000;11.640;2023-04-06T05:53:44;96181.53;;;-1.99;70.76
31775;BME280;66189;49.000;11.640;2023-04-06T05:55:45;96194.69;;;-1.93;72.32
31775;BME280;66189;49.000;11.640;2023-04-06T05:57:52;96195.19;;;-1.86;72.75
31775;BME280;66189;49.000;11.640;2023-04-06T05:59:57;96190.16;;;-1.83;72.34
31775;BME280;66189;49.000;11.640;2023-04-06T06:02:02;96194.59;;;-1.73;71.76
31775;BME280;66189;49.000;11.640;2023-04-06T06:04:06;96194.00;;;-1.65;71.63
31775;BME280;66189;49.000;11.640;2023-04-06T06:06:09;96187.38;;;-1.57;72.04
31775;BME280;66189;49.000;11.640;2023-04-06T06:08:21;96190.50;;;-1.50;72.56
31775;BME280;66189;49.000;11.640;2023-04-06T06:10:25;96196.00;;;-1.41;71.54
31775;BME280;66189;49.000;11.640;2023-04-06T06:12:25;96194.91;;;-1.35;70.89
31775;BME280;66189;49.000;11.640;2023-04-06T06:14:26;96204.91;;;-1.32;70.79
31775;BME280;66189;49.000;11.640;2023-04-06T06:16:28;96200.91;;;-1.29;71.68
31775;BME280;66189;49.000;11.640;2023-04-06T06:18:29;96203.53;;;-1.29;72.73
31775;BME280;66189;49.000;11.640;2023-04-06T06:20:29;96203.28;;;-1.28;73.04
31775;BME280;66189;49.000;11.640;2023-04-06T06:22:33;96203.75;;;-1.20;71.74
31775;BME280;66189;49.000;11.640;2023-04-06T06:24:35;96204.56;;;-1.20;70.90
31775;BME280;66189;49.000;11.640;2023-04-06T06:26:36;96201.59;;;-1.13;70.66
31775;BME280;66189;49.000;11.640;2023-04-06T06:28:38;96197.31;;;-1.04;69.94
31775;BME280;66189;49.000;11.640;2023-04-06T06:30:38;96208.84;;;-0.95;69.99
31775;BME280;66189;49.000;11.640;2023-04-06T06:32:39;96206.41;;;-0.86;69.42
31775;BME280;66189;49.000;11.640;2023-04-06T06:34:40;96215.03;;;-0.75;68.63
31775;BME280;66189;49.000;11.640;2023-04-06T06:36:42;96211.00;;;-0.67;67.92
31775;BME280;66189;49.000;11.640;2023-04-06T06:38:47;96216.69;;;-0.55;67.42
31775;BME280;66189;49.000;11.640;2023-04-06T06:40:49;96215.25;;;-0.42;67.72
31775;BME280;66189;49.000;11.640;2023-04-06T06:42:50;96217.28;;;-0.34;67.75
31775;BME280;66189;49.000;11.640;2023-04-06T06:45:00;96216.25;;;-0.38;66.85
31775;BME280;66189;49.000;11.640;2023-04-06T06:47:00;96222.47;;;-0.24;66.87
31775;BME280;66189;49.000;11.640;2023-04-06T06:49:01;96219.88;;;-0.29;67.59
31775;BME280;66189;49.000;11.640;2023-04-06T06:51:01;96224.38;;;-0.05;67.79
31775;BME280;66189;49.000;11.640;2023-04-06T06:53:02;96222.91;;;0.08;67.37
31775;BME280;66189;49.000;11.640;2023-04-06T06:55:02;96220.66;;;0.20;67.22
31775;BME280;66189;49.000;11.640;2023-04-06T06:57:03;96218.00;;;0.39;68.11
31775;BME280;66189;49.000;11.640;2023-04-06T06:59:04;96218.16;;;0.48;68.08
31775;BME280;66189;49.000;11.640;2023-04-06T07:01:04;96224.06;;;0.64;67.12
31775;BME280;66189;49.000;11.640;2023-04-06T07:03:06;96227.25;;;0.80;67.30
31775;BME280;66189;49.000;11.640;2023-04-06T07:05:07;96222.81;;;0.94;66.45
31775;BME280;66189;49.000;11.640;2023-04-06T07:07:08;96222.59;;;1.10;65.12
31775;BME280;66189;49.000;11.640;2023-04-06T07:09:08;96225.81;;;1.06;65.13
31775;BME280;66189;49.000;11.640;2023-04-06T07:11:09;96227.50;;;1.16;62.84
31775;BME280;66189;49.000;11.640;2023-04-06T07:13:09;96219.59;;;1.30;62.32
31775;BME280;66189;49.000;11.640;2023-04-06T07:15:10;96221.19;;;1.45;62.80
31775;BME280;66189;49.000;11.640;2023-04-06T07:17:10;96218.88;;;1.57;61.93
31775;BME280;66189;49.000;11.640;2023-04-06T07:19:11;96219.47;;;1.68;60.78
31775;BME280;66189;49.000;11.640;2023-04-06T07:21:11;96214.69;;;1.84;59.84
31775;BME280;66189;49.000;11.640;2023-04-06T07:23:12;96213.09;;;1.97;59.12
31775;BME280;66189;49.000;11.640;2023-04-06T07:25:13;96220.47;;;2.14;60.52
31775;BME280;66189;49.000;11.640;2023-04-06T07:27:15;96221.72;;;2.30;58.85
31775;BME280;66189;49.000;11.640;2023-04-06T07:29:17;96221.91;;;2.48;58.14
31775;BME280;66189;49.000;11.640;2023-04-06T07:31:18;96222.47;;;2.59;58.05
31775;BME280;66189;49.000;11.640;2023-04-06T07:33:19;96225.28;;;2.76;55.87
31775;BME280;66189;49.000;11.640;2023-04-06T07:35:20;96226.16;;;2.86;54.18
31775;BME280;66189;49.000;11.640;2023-04-06T07:37:20;96225.97;;;3.05;54.69
31775;BME280;66189;49.000;11.640;2023-04-06T07:39:21;96232.06;;;3.05;52.34
31775;BME280;66189;49.000;11.640;2023-04-06T07:41:22;96227.44;;;3.11;52.96
31775;BME280;66189;49.000;11.640;2023-04-06T07:43:24;96220.13;;;3.39;50.93
31775;BME280;66189;49.000;11.640;2023-04-06T07:45:25;96232.06;;;3.50;50.14
31775;BME280;66189;49.000;11.640;2023-04-06T07:47:26;96232.88;;;3.60;47.11
31775;BME280;66189;49.000;11.640;2023-04-06T07:49:27;96233.03;;;3.54;47.51
31775;BME280;66189;49.000;11.640;2023-04-06T07:51:27;96234.94;;;3.63;47.70
31775;BME280;66189;49.000;11.640;2023-04-06T07:53:28;96232.03;;;3.73;47.01
31775;BME280;66189;49.000;11.640;2023-04-06T07:55:28;96224.34;;;3.71;48.31
31775;BME280;66189;49.000;11.640;2023-04-06T07:57:28;96241.66;;;3.91;47.28
31775;BME280;66189;49.000;11.640;2023-04-06T07:59:29;96234.94;;;3.94;46.57
31775;BME280;66189;49.000;11.640;2023-04-06T08:01:29;96228.56;;;4.13;46.52
31775;BME280;66189;49.000;11.640;2023-04-06T08:03:33;96228.88;;;4.11;46.59
31775;BME280;66189;49.000;11.640;2023-04-06T08:05:34;96227.22;;;4.24;45.32
31775;BME280;66189;49.000;11.640;2023-04-06T08:07:34;96234.75;;;4.31;45.74
31775;BME280;66189;49.000;11.640;2023-04-06T08:09:35;96230.84;;;4.37;45.52
31775;BME280;66189;49.000;11.640;2023-04-06T08:11:36;96227.91;;;4.47;44.59
31775;BME280;66189;49.000;11.640;2023-04-06T08:13:36;96229.78;;;4.64;45.40
31775;BME280;66189;49.000;11.640;2023-04-06T08:15:36;96234.38;;;4.72;43.00
31775;BME280;66189;49.000;11.640;2023-04-06T08:17:37;96230.09;;;4.62;43.17
31775;BME280;66189;49.000;11.640;2023-04-06T08:19:37;96229.34;;;4.71;43.89
31775;BME280;66189;49.000;11.640;2023-04-06T08:21:37;96224.94;;;4.75;42.67
31775;BME280;66189;49.000;11.640;2023-04-06T08:23:38;96241.56;;;4.72;42.59
31775;BME280;66189;49.000;11.640;2023-04-06T08:25:38;96236.53;;;4.70;41.87
31775;BME280;66189;49.000;11.640;2023-04-06T08:27:39;96238.13;;;4.80;43.48
31775;BME280;66189;49.000;11.640;2023-04-06T08:29:39;96230.78;;;5.03;43.73
31775;BME280;66189;49.000;11.640;2023-04-06T08:31:39;96233.59;;;4.98;42.07
31775;BME280;66189;49.000;11.640;2023-04-06T08:33:40;96238.47;;;5.13;42.98
31775;BME280;66189;49.000;11.640;2023-04-06T08:35:40;96238.44;;;4.96;41.49
31775;BME280;66189;49.000;11.640;2023-04-06T08:37:41;96236.25;;;5.15;42.60
31775;BME280;66189;49.000;11.640;2023-04-06T08:39:41;96227.28;;;5.38;41.83
31775;BME280;66189;49.000;11.640;2023-04-06T08:41:42;96237.59;;;5.57;42.22
31775;BME280;66189;49.000;11.640;2023-04-06T08:44:03;96231.94;;;5.67;41.08
31775;BME280;66189;49.000;11.640;2023-04-06T08:46:05;96228.41;;;5.93;42.87
31775;BME280;66189;49.000;11.640;2023-04-06T08:48:06;96233.41;;;5.94;40.98
31775;BME280;66189;49.000;11.640;2023-04-06T08:50:08;96227.44;;;6.06;41.05
31775;BME280;66189;49.000;11.640;2023-04-06T08:52:10;96230.44;;;6.04;41.05
31775;BME280;66189;49.000;11.640;2023-04-06T08:54:11;96226.31;;;6.07;39.30
31775;BME280;66189;49.000;11.640;2023-04-06T08:56:11;96228.28;;;6.28;39.56
31775;BME280;66189;49.000;11.640;2023-04-06T08:58:12;96231.03;;;6.40;39.32
31775;BME280;66189;49.000;11.640;2023-04-06T09:00:13;96225.78;;;6.52;38.82
31775;BME280;66189;49.000;11.640;2023-04-06T09:02:17;96227.16;;;6.58;38.31
31775;BME280;66189;49.000;11.640;2023-04-06T09:04:18;96228.59;;;6.77;37.49
31775;BME280;66189;49.000;11.640;2023-04-06T09:06:18;96221.44;;;6.90;36.48
31775;BME280;66189;49.000;11.640;2023-04-06T09:08:19;96225.81;;;6.94;38.55
31775;BME280;66189;49.000;11.640;2023-04-06T09:10:19;96221.22;;;6.95;35.96
31775;BME280;66189;49.000;11.640;2023-04-06T09:14:37;96221.44;;;7.11;37.35
31775;BME280;66189;49.000;11.640;2023-04-06T09:16:42;96224.22;;;7.15;37.62
31775;BME280;66189;49.000;11.640;2023-04-06T09:18:44;96222.69;;;7.47;37.96
31775;BME280;66189;49.000;11.640;2023-04-06T09:20:44;96223.63;;;7.09;35.23
31775;BME280;66189;49.000;11.640;2023-04-06T09:22:45;96225.91;;;7.19;36.78
31775;BME280;66189;49.000;11.640;2023-04-06T09:24:50;96226.53;;;7.04;35.51
31775;BME280;66189;49.000;11.640;2023-04-06T09:26:51;96227.88;;;7.31;37.69
31775;BME280;66189;49.000;11.640;2023-04-06T09:28:54;96224.81;;;7.20;34.83
31775;BME280;66189;49.000;11.640;2023-04-06T09:30:54;96228.16;;;7.51;36.41
31775;BME280;66189;49.000;11.640;2023-04-06T09:32:56;96231.84;;;7.58;35.68
31775;BME280;66189;49.000;11.640;2023-04-06T09:35:09;96231.31;;;7.32;35.29
31775;BME280;66189;49.000;11.640;2023-04-06T09:37:16;96227.09;;;7.76;38.00
31775;BME280;66189;49.000;11.640;2023-04-06T09:39:20;96223.56;;;7.51;34.35
31775;BME280;66189;49.000;11.640;2023-04-06T09:41:26;96222.66;;;7.93;36.48
31775;BME280;66189;49.000;11.640;2023-04-06T09:43:27;96226.13;;;8.06;35.25
31775;BME280;66189;49.000;11.640;2023-04-06T09:45:29;96227.94;;;8.39;35.18
31775;BME280;66189;49.000;11.640;2023-04-06T09:47:31;96217.31;;;8.30;32.40
31775;BME280;66189;49.000;11.640;2023-04-06T09:49:33;96221.69;;;8.34;34.89
31775;BME280;66189;49.000;11.640;2023-04-06T09:51:38;96221.56;;;8.31;35.38
31775;BME280;66189;49.000;11.640;2023-04-06T09:53:41;96213.06;;;8.04;31.64
31775;BME280;66189;49.000;11.640;2023-04-06T09:55:45;96212.97;;;8.25;35.71
31775;BME280;66189;49.000;11.640;2023-04-06T09:58:05;96218.34;;;9.03;36.30
31775;BME280;66189;49.000;11.640;2023-04-06T10:00:07;96219.00;;;9.56;36.93
31775;BME280;66189;49.000;11.640;2023-04-06T10:02:25;96218.00;;;9.61;33.19
31775;BME280;66189;49.000;11.640;2023-04-06T10:04:43;96220.16;;;9.27;31.52
31775;BME280;66189;49.000;11.640;2023-04-06T10:06:45;96214.56;;;9.32;33.08
31775;BME280;66189;49.000;11.640;2023-04-06T10:08:50;96215.41;;;9.36;34.08
31775;BME280;66189;49.000;11.640;2023-04-06T10:10:55;96219.56;;;8.65;32.37
31775;BME280;66189;49.000;11.640;2023-04-06T10:12:56;96210.47;;;8.82;32.97
31775;BME280;66189;49.000;11.640;2023-04-06T10:14:57;96215.63;;;8.62;32.55
31775;BME280;66189;49.000;11.640;2023-04-06T10:16:57;96202.25;;;8.25;32.67
31775;BME280;66189;49.000;11.640;2023-04-06T10:19:02;96202.78;;;7.94;33.28
31775;BME280;66189;49.000;11.640;2023-04-06T10:21:12;96203.59;;;8.19;34.85
31775;BME280;66189;49.000;11.640;2023-04-06T10:23:30;96201.81;;;8.48;35.59
31775;BME280;66189;49.000;11.640;2023-04-06T10:25:32;96203.91;;;8.79;34.34
31775;BME280;66189;49.000;11.640;2023-04-06T10:27:33;96201.34;;;8.70;33.12
31775;BME280;66189;49.000;11.640;2023-04-06T10:29:44;96194.31;;;9.06;35.67
31775;BME280;66189;49.000;11.640;2023-04-06T10:31:48;96196.41;;;9.41;35.35
31775;BME280;66189;49.000;11.640;2023-04-06T10:33:56;96184.72;;;10.13;35.36
31775;BME280;66189;49.000;11.640;2023-04-06T10:35:57;96185.84;;;10.12;36.23
31775;BME280;66189;49.000;11.640;2023-04-06T10:38:03;96187.81;;;10.47;35.32
31775;BME280;66189;49.000;11.640;2023-04-06T10:40:04;96190.38;;;10.40;31.98
31775;BME280;66189;49.000;11.640;2023-04-06T10:42:06;96184.81;;;10.33;31.84
31775;BME280;66189;49.000;11.640;2023-04-06T10:44:06;96180.25;;;10.69;31.20
31775;BME280;66189;49.000;11.640;2023-04-06T10:46:08;96177.03;;;10.63;34.47